| Date | Time | Temp. (oF) | Dew Point (oF) | Rel. Hum. (%) | Press. (in.) | Wind Dir. | Wind Speed (mph) | Hourly Rainfall (in.) |
|
|---|---|---|---|---|---|---|---|---|---|
| 1 | 11/02 | 00:00 | 46 | 40 | 81 | 30.32 | SSW | 0 | 0.00 |
| 2 | 11/01 | 23:00 | 47 | 40 | 77 | 30.31 | S | 0 | 0.00 |
| 3 | 11/01 | 22:00 | 48 | 40 | 74 | 30.31 | SSW | 0 | 0.00 |
| 4 | 11/01 | 21:00 | 50 | 40 | 70 | 30.31 | WSW | 0 | 0.00 |
| 5 | 11/01 | 20:00 | 51 | 40 | 68 | 30.31 | WSW | 0 | 0.00 |
| 6 | 11/01 | 19:00 | 52 | 40 | 65 | 30.31 | WSW | 0 | 0.00 |
| 7 | 11/01 | 18:00 | 53 | 40 | 62 | 30.30 | SW | 0 | 0.00 |
| 8 | 11/01 | 17:00 | 54 | 40 | 60 | 30.29 | SW | 3 | 0.00 |
| 9 | 11/01 | 16:00 | 54 | 40 | 60 | 30.30 | SW | 5 | 0.00 |
| 10 | 11/01 | 15:00 | 54 | 40 | 60 | 30.30 | WSW | 9 | 0.00 |
| 11 | 11/01 | 14:00 | 53 | 38 | 58 | 30.31 | WSW | 7 | 0.00 |
| 12 | 11/01 | 13:00 | 52 | 36 | 55 | 30.34 | WSW | 4 | 0.00 |
| 13 | 11/01 | 12:00 | 49 | 38 | 68 | 30.35 | WSW | 1 | 0.00 |
| 14 | 11/01 | 11:00 | 45 | 38 | 79 | 30.36 | SW | 0 | 0.00 |
| 15 | 11/01 | 10:00 | 40 | 36 | 87 | 30.37 | WSW | 0 | 0.00 |
| 16 | 11/01 | 09:00 | 36 | 33 | 91 | 30.37 | SSW | 2 | 0.00 |
| 17 | 11/01 | 08:00 | 33 | 30 | 90 | 30.36 | WSW | 0 | 0.00 |
| 18 | 11/01 | 07:00 | 32 | 29 | 91 | 30.35 | SSE | 0 | 0.00 |
| 19 | 11/01 | 06:00 | 31 | 28 | 89 | 30.34 | SSW | 0 | 0.00 |
| 20 | 11/01 | 05:00 | 31 | 27 | 88 | 30.33 | W | 0 | 0.00 |
| 21 | 11/01 | 04:00 | 33 | 29 | 87 | 30.34 | W | 0 | 0.00 |
| 22 | 11/01 | 03:00 | 34 | 30 | 86 | 30.33 | W | 0 | 0.00 |
| 23 | 11/01 | 02:00 | 35 | 30 | 84 | 30.31 | SW | 0 | 0.00 |
| 24 | 11/01 | 01:00 | 36 | 31 | 82 | 30.31 | SSW | 0 | 0.00 |